Time;durP1;ratioP1;P1;durP2;ratioP2;P2;SDS_P1;SDS_P2;PMS_P1;PMS_P2;Temp;Humidity;BMP_temperature;BMP_pressure;BME280_temperature;BME280_humidity;BME280_pressure;Samples;Min_cycle;Max_cycle;Signal;HPM_P1;HPM_P2
2021/10/25 00:01:07;;;;;;;;;;;154.30;2252.80;;;;;;5111477;28;20484;-75
2021/10/25 00:03:33;;;;;;;14.52;8.48;;;154.20;2252.80;;;;;;5108217;28;19914;-74
2021/10/25 00:05:58;;;;;;;;;;;154.10;2252.80;;;;;;5112051;28;20015;-79
2021/10/25 00:08:24;;;;;;;11.70;7.05;;;154.00;2252.80;;;;;;5110675;28;20291;-75
2021/10/25 00:10:50;;;;;;;;;;;153.80;2252.80;;;;;;5108531;28;20038;-74
2021/10/25 00:13:16;;;;;;;16.83;8.68;;;153.80;2252.80;;;;;;5130927;27;20338;-73
2021/10/25 00:15:41;;;;;;;;;;;153.80;2252.80;;;;;;5114765;28;20056;-74
2021/10/25 00:18:07;;;;;;;12.98;7.97;;;153.70;2252.80;;;;;;5132369;27;19915;-73
2021/10/25 00:20:34;;;;;;;;;;;153.60;2252.80;;;;;;5132724;27;20484;-75
2021/10/25 00:23:00;;;;;;;21.40;7.85;;;128.90;2252.80;;;;;;5132496;27;19911;-74
2021/10/25 00:25:25;;;;;;;;;;;128.90;2252.80;;;;;;5114312;28;20027;-73
2021/10/25 00:27:51;;;;;;;17.23;7.82;;;153.70;2252.80;;;;;;5131825;27;19910;-74
2021/10/25 00:30:17;;;;;;;;;;;153.60;2252.80;;;;;;5111028;28;20031;-74
2021/10/25 00:32:42;;;;;;;17.02;8.05;;;153.60;2252.80;;;;;;5112384;28;20273;-74
2021/10/25 00:35:08;;;;;;;;;;;153.60;2252.80;;;;;;5114278;28;20019;-74
2021/10/25 00:37:34;;;;;;;21.27;7.82;;;153.60;2252.80;;;;;;5112279;28;19907;-76
2021/10/25 00:40:00;;;;;;;;;;;153.60;2252.80;;;;;;5112966;28;20031;-75
2021/10/25 00:42:26;;;;;;;16.95;8.73;;;128.80;2252.80;;;;;;5110828;28;19907;-74
2021/10/25 00:44:52;;;;;;;19.45;8.30;;;128.80;2252.80;;;;;;5131884;28;20039;-74
2021/10/25 00:47:18;;;;;;;;;;;128.70;2252.80;;;;;;5132849;28;20130;-74
2021/10/25 00:49:44;;;;;;;13.10;7.22;;;128.70;2252.80;;;;;;5132274;28;19907;-75
2021/10/25 00:52:09;;;;;;;;;;;128.50;2252.80;;;;;;5132412;28;20064;-75
2021/10/25 00:54:35;;;;;;;13.95;7.90;;;128.60;2252.80;;;;;;5113271;28;19911;-75
2021/10/25 00:57:03;;;;;;;;;;;128.40;2252.80;;;;;;5132311;28;20138;-75
2021/10/25 00:59:29;;;;;;;17.38;8.10;;;128.50;2252.80;;;;;;5113764;28;19908;-75
2021/10/25 01:01:55;;;;;;;17.92;7.68;;;128.50;2252.80;;;;;;5132017;28;20027;-74
2021/10/25 01:04:21;;;;;;;19.80;8.63;;;128.50;2252.80;;;;;;5132140;27;20104;-74
2021/10/25 01:06:47;;;;;;;;;;;128.50;2252.80;;;;;;5132391;28;20076;-73
2021/10/25 01:09:15;;;;;;;17.45;7.18;;;128.50;2252.80;;;;;;5132271;27;19903;-73
2021/10/25 01:11:42;;;;;;;13.23;7.30;;;128.60;2252.80;;;;;;5112220;28;20040;-74
2021/10/25 01:14:08;;;;;;;16.50;8.25;;;128.60;2252.80;;;;;;5131923;28;20023;-75
2021/10/25 01:16:33;;;;;;;;;;;128.80;2252.80;;;;;;5132514;28;20645;-74
2021/10/25 01:18:59;;;;;;;14.43;8.30;;;128.80;2252.80;;;;;;5131853;28;19925;-74
2021/10/25 01:21:25;;;;;;;;;;;128.70;2252.80;;;;;;5132454;28;20015;-74
2021/10/25 01:23:52;;;;;;;17.75;8.25;;;128.60;2252.80;;;;;;5127731;28;19915;-75
2021/10/25 01:26:23;;;;;;;14.00;7.75;;;128.60;2252.80;;;;;;5120510;28;20011;-74
2021/10/25 01:28:52;;;;;;;20.83;8.20;;;128.50;2252.80;;;;;;5129031;28;20027;-73
2021/10/25 01:31:19;;;;;;;18.30;7.82;;;128.60;2252.80;;;;;;5113545;28;20069;-74
2021/10/25 01:33:50;;;;;;;17.77;8.32;;;128.50;2252.80;;;;;;5113245;28;20468;-74
2021/10/25 01:36:16;;;;;;;22.20;10.23;;;128.60;2252.80;;;;;;5131862;28;20007;-74
2021/10/25 01:38:42;;;;;;;;;;;128.70;2252.80;;;;;;5114959;27;20038;-75
2021/10/25 01:41:11;;;;;;;16.15;7.82;;;128.70;2252.80;;;;;;5116474;27;20286;-74
2021/10/25 01:43:37;;;;;;;17.80;9.05;;;128.60;2252.80;;;;;;5127490;27;20035;-75
2021/10/25 01:46:05;;;;;;;;;;;128.50;2252.80;;;;;;5123028;27;20016;-76
2021/10/25 01:48:31;;;;;;;13.68;8.60;;;128.30;2252.80;;;;;;5132702;27;19910;-74
2021/10/25 01:50:56;;;;;;;;;;;128.30;2252.80;;;;;;5133828;27;20358;-75
2021/10/25 01:53:23;;;;;;;17.52;8.30;;;128.20;2252.80;;;;;;5104994;27;19915;-74
2021/10/25 01:55:58;;;;;;;16.05;8.45;;;128.10;2252.80;;;;;;5135305;27;20546;-75
2021/10/25 01:58:24;;;;;;;13.68;8.52;;;128.20;2252.80;;;;;;5111048;28;20054;-74
2021/10/25 02:00:50;;;;;;;;;;;128.20;2252.80;;;;;;5113609;27;20011;-74
2021/10/25 02:03:16;;;;;;;18.67;8.63;;;128.10;2252.80;;;;;;5116617;27;19907;-74
2021/10/25 02:05:42;;;;;;;;;;;128.10;2252.80;;;;;;5135386;27;20275;-74
2021/10/25 02:08:07;;;;;;;17.75;9.07;;;128.10;2252.80;;;;;;5134851;27;19945;-75
2021/10/25 02:10:33;;;;;;;;;;;128.00;2252.80;;;;;;5113190;28;20020;-74
2021/10/25 02:12:59;;;;;;;13.55;7.97;;;103.30;2227.20;;;;;;5124255;27;19964;-74
2021/10/25 02:15:25;;;;;;;16.67;8.48;;;128.10;2252.80;;;;;;5116438;27;20023;-77
2021/10/25 02:17:51;;;;;;;;;;;128.20;2252.80;;;;;;5113991;27;20011;-74
2021/10/25 02:20:17;;;;;;;17.02;8.52;;;128.50;2252.80;;;;;;5116378;27;19945;-75
2021/10/25 02:22:43;;;;;;;;;;;128.40;2252.80;;;;;;5135172;27;20024;-74
2021/10/25 02:25:08;;;;;;;14.55;8.00;;;128.50;2252.80;;;;;;5115938;27;19931;-74
2021/10/25 02:27:34;;;;;;;;;;;128.50;2252.80;;;;;;5116535;27;20110;-74
2021/10/25 02:30:00;;;;;;;18.50;9.45;;;128.50;2252.80;;;;;;5134080;27;19903;-74
2021/10/25 02:32:25;;;;;;;;;;;128.30;2252.80;;;;;;5116546;27;20019;-74
2021/10/25 02:34:51;;;;;;;20.77;9.05;;;128.30;2252.80;;;;;;5115770;27;19953;-74
2021/10/25 02:37:18;;;;;;;14.60;8.55;;;128.20;2252.80;;;;;;5134228;27;20018;-74
2021/10/25 02:39:44;;;;;;;24.13;10.30;;;128.30;2252.80;;;;;;5115610;27;20384;-74
2021/10/25 02:42:11;;;;;;;18.27;9.63;;;128.40;2252.80;;;;;;5134057;27;20023;-74
2021/10/25 02:44:37;;;;;;;19.00;9.52;;;128.30;2252.80;;;;;;5134043;27;20056;-74
2021/10/25 02:47:03;;;;;;;19.73;9.05;;;128.30;2252.80;;;;;;5134013;27;20022;-74
2021/10/25 02:49:29;;;;;;;;;;;128.20;2252.80;;;;;;5133790;27;20019;-73
2021/10/25 02:51:55;;;;;;;17.73;9.20;;;128.20;2252.80;;;;;;5115456;27;19914;-74
2021/10/25 02:54:21;;;;;;;;;;;128.10;2252.80;;;;;;5134153;27;20372;-74
2021/10/25 02:56:47;;;;;;;17.33;9.07;;;128.20;2252.80;;;;;;5133648;27;20380;-73
2021/10/25 02:59:14;;;;;;;17.13;9.25;;;128.00;2252.80;;;;;;5112889;27;20015;-74
2021/10/25 03:01:41;;;;;;;19.60;9.40;;;103.20;2227.20;;;;;;5133612;27;20052;-74
2021/10/25 03:04:07;;;;;;;21.23;10.02;;;103.00;2227.20;;;;;;5133679;27;20023;-74
2021/10/25 03:06:34;;;;;;;17.73;10.68;;;103.00;2227.20;;;;;;5130784;27;20019;-74
2021/10/25 03:09:00;;;;;;;17.42;9.13;;;102.80;2227.20;;;;;;5133187;27;20023;-74
2021/10/25 03:11:27;;;;;;;17.13;9.27;;;102.80;2227.20;;;;;;5127928;27;20093;-73
2021/10/25 03:13:53;;;;;;;20.95;9.85;;;102.80;2227.20;;;;;;5094659;28;20440;-74
2021/10/25 03:16:20;;;;;;;;;;;102.60;2227.20;;;;;;5129241;27;20464;-75
2021/10/25 03:18:47;;;;;;;12.32;7.15;;;102.70;2227.20;;;;;;5133163;27;19908;-75
2021/10/25 03:21:13;;;;;;;20.25;9.50;;;102.50;2227.20;;;;;;5133409;27;20047;-75
2021/10/25 03:23:40;;;;;;;16.67;8.85;;;103.00;2227.20;;;;;;5114739;27;20541;-74
2021/10/25 03:26:06;;;;;;;17.13;8.85;;;102.60;2227.20;;;;;;5125028;27;20024;-74
2021/10/25 03:28:32;;;;;;;20.40;9.60;;;102.50;2227.20;;;;;;5108488;27;20015;-74
2021/10/25 03:30:58;;;;;;;25.55;9.18;;;102.40;2227.20;;;;;;5133242;27;20027;-73
2021/10/25 03:33:24;;;;;;;;;;;77.70;2227.20;;;;;;5133337;27;20019;-73
2021/10/25 03:35:50;;;;;;;19.08;9.05;;;102.50;2227.20;;;;;;5132802;27;20291;-73
2021/10/25 03:38:17;;;;;;;;;;;102.60;2227.20;;;;;;5133316;27;20015;-74
2021/10/25 03:40:47;;;;;;;14.30;7.07;;;102.50;2227.20;;;;;;5132648;27;19914;-73
2021/10/25 03:43:13;;;;;;;23.20;9.75;;;102.60;2227.20;;;;;;5123735;27;20033;-74
2021/10/25 03:45:51;;;;;;;23.20;10.75;;;102.50;2227.20;;;;;;5110974;28;20522;-74
2021/10/25 03:50:45;;;;;;;21.02;10.23;;;102.50;2227.20;;;;;;5132908;27;20110;-74
2021/10/25 04:03:29;;;;;;;20.00;10.88;;;102.90;2227.20;;;;;;5129262;27;20026;-74
2021/10/25 04:30:35;;;;;;;19.20;10.75;;;103.10;2227.20;;;;;;5038355;28;20029;-79
2021/10/25 04:33:01;;;;;;;22.55;10.60;;;103.00;2227.20;;;;;;5047644;28;20071;-76
2021/10/25 04:35:28;;;;;;;22.95;10.80;;;103.00;2227.20;;;;;;5039516;28;20025;-73
2021/10/25 04:37:53;;;;;;;18.73;10.18;;;102.80;2227.20;;;;;;5037619;28;20104;-75
2021/10/25 04:40:19;;;;;;;24.88;9.82;;;102.60;2227.20;;;;;;5039288;28;20170;-75
2021/10/25 04:42:45;;;;;;;;;;;102.50;2227.20;;;;;;5039561;28;20037;-77
2021/10/25 04:45:11;;;;;;;17.15;9.48;;;77.70;2227.20;;;;;;5038033;28;19928;-74
2021/10/25 04:47:37;;;;;;;;;;;77.70;2227.20;;;;;;5043113;28;20071;-77
2021/10/25 04:50:05;;;;;;;19.42;10.40;;;77.70;2227.20;;;;;;5039408;28;19994;-76
2021/10/25 04:52:31;;;;;;;17.45;9.75;;;102.40;2227.20;;;;;;5044524;28;20039;-76
2021/10/25 04:54:57;;;;;;;19.42;11.15;;;102.40;2227.20;;;;;;5110523;28;20480;-76
2021/10/25 04:57:23;;;;;;;16.70;9.13;;;102.50;2227.20;;;;;;5108010;28;20020;-76
2021/10/25 04:59:49;;;;;;;28.88;9.32;;;102.60;2227.20;;;;;;5121124;28;20384;-74
2021/10/25 05:02:15;;;;;;;14.55;9.40;;;102.70;2227.20;;;;;;5122934;28;20027;-75
2021/10/25 05:04:41;;;;;;;;;;;102.50;2227.20;;;;;;5109057;28;20031;-75
2021/10/25 05:07:07;;;;;;;21.52;8.85;;;102.60;2227.20;;;;;;5102901;28;19929;-75
2021/10/25 05:09:33;;;;;;;19.17;8.95;;;102.50;2227.20;;;;;;5104824;28;20038;-75
2021/10/25 05:11:59;;;;;;;19.27;8.68;;;102.60;2227.20;;;;;;5106271;28;20544;-76
2021/10/25 05:14:25;;;;;;;;;;;102.60;2227.20;;;;;;5112024;28;20032;-75
2021/10/25 05:16:50;;;;;;;27.58;8.93;;;102.70;2227.20;;;;;;5112714;28;19914;-75
2021/10/25 05:19:16;;;;;;;;;;;102.70;2227.20;;;;;;5103050;27;20028;-76
2021/10/25 05:21:42;;;;;;;15.52;8.18;;;102.60;2227.20;;;;;;5123502;27;21363;-75
2021/10/25 05:24:07;;;;;;;;;;;102.60;2227.20;;;;;;5117167;27;20036;-74
2021/10/25 05:26:34;;;;;;;18.55;8.77;;;102.50;2227.20;;;;;;5123357;27;19952;-75
2021/10/25 05:29:00;;;;;;;25.98;8.88;;;102.70;2227.20;;;;;;5121465;27;20046;-76
2021/10/25 05:31:25;;;;;;;;;;;102.40;2227.20;;;;;;5125460;27;20015;-76
2021/10/25 05:33:51;;;;;;;21.42;8.25;;;102.50;2227.20;;;;;;5125222;27;19910;-75
2021/10/25 05:36:17;;;;;;;;;;;102.50;2227.20;;;;;;5131599;27;20012;-74
2021/10/25 05:38:43;;;;;;;20.40;9.18;;;102.60;2227.20;;;;;;5132081;27;19907;-75
2021/10/25 05:41:11;;;;;;;;;;;102.60;2227.20;;;;;;5114593;27;20030;-74
2021/10/25 05:43:37;;;;;;;17.52;9.52;;;102.70;2227.20;;;;;;5100204;27;19942;-75
2021/10/25 05:46:02;;;;;;;16.13;8.57;;;102.70;2227.20;;;;;;5131831;27;20475;-77
2021/10/25 05:48:28;;;;;;;;;;;102.80;2227.20;;;;;;5128591;27;20039;-74
2021/10/25 05:50:55;;;;;;;23.83;11.35;;;103.00;2227.20;;;;;;5122973;27;19915;-75
2021/10/25 05:53:21;;;;;;;20.55;10.52;;;103.00;2227.20;;;;;;5130090;27;20026;-77
2021/10/25 05:55:47;;;;;;;18.77;9.23;;;103.20;2227.20;;;;;;5126560;27;20011;-75
2021/10/25 05:58:21;;;;;;;20.92;10.68;;;103.30;2227.20;;;;;;5113055;27;20726;-74
2021/10/25 06:00:57;;;;;;;18.25;10.32;;;128.10;2252.80;;;;;;5133635;27;20035;-73
2021/10/25 06:03:25;;;;;;;17.80;10.73;;;128.30;2252.80;;;;;;5135640;27;20113;-73
2021/10/25 06:05:51;;;;;;;20.02;11.35;;;128.40;2252.80;;;;;;5125397;27;20019;-73
2021/10/25 06:08:17;;;;;;;29.08;13.52;;;128.50;2252.80;;;;;;5130215;27;20101;-75
2021/10/25 06:10:44;;;;;;;22.75;12.88;;;128.40;2252.80;;;;;;5125621;27;20019;-73
2021/10/25 06:13:19;;;;;;;17.27;11.05;;;128.30;2252.80;;;;;;5135105;27;20054;-75
2021/10/25 06:15:53;;;;;;;22.65;12.73;;;128.60;2252.80;;;;;;5115969;27;20035;-76
2021/10/25 06:18:19;;;;;;;23.95;12.90;;;128.60;2252.80;;;;;;5118986;27;20038;-77
2021/10/25 06:20:45;;;;;;;28.40;14.52;;;128.80;2252.80;;;;;;5115736;27;20487;-73
2021/10/25 06:23:12;;;;;;;;;;;128.80;2252.80;;;;;;5116652;27;20031;-77
2021/10/25 06:25:40;;;;;;;22.67;12.85;;;128.70;2252.80;;;;;;5130187;27;19913;-77
2021/10/25 06:28:06;;;;;;;27.27;13.50;;;128.70;2252.80;;;;;;5130338;27;20031;-76
2021/10/25 06:30:33;;;;;;;24.38;13.35;;;128.60;2252.80;;;;;;5115773;27;20035;-74
2021/10/25 06:33:02;;;;;;;25.08;13.35;;;128.70;2252.80;;;;;;5130242;27;20030;-75
2021/10/25 06:35:28;;;;;;;21.67;14.20;;;128.60;2252.80;;;;;;5115587;27;20023;-75
2021/10/25 06:38:01;;;;;;;23.77;12.45;;;128.70;2252.80;;;;;;5135367;27;20095;-74
2021/10/25 06:40:28;;;;;;;25.20;12.98;;;128.60;2252.80;;;;;;5130378;27;20031;-73
2021/10/25 06:42:55;;;;;;;21.98;12.48;;;128.60;2252.80;;;;;;5129226;27;20051;-75
2021/10/25 06:45:22;;;;;;;24.70;12.35;;;128.70;2252.80;;;;;;5123953;27;20476;-77
2021/10/25 06:47:52;;;;;;;22.70;11.90;;;128.80;2252.80;;;;;;5116537;27;20059;-75
2021/10/25 06:50:24;;;;;;;20.20;11.15;;;128.90;2252.80;;;;;;5110994;27;20023;-75
2021/10/25 06:53:01;;;;;;;23.23;11.18;;;153.60;2252.80;;;;;;5110593;27;20050;-74
2021/10/25 06:55:27;;;;;;;;;;;153.80;2252.80;;;;;;5127948;27;20031;-74
2021/10/25 06:57:52;;;;;;;24.67;11.63;;;153.90;2252.80;;;;;;5123214;27;19961;-75
2021/10/25 07:00:18;;;;;;;;;;;153.90;2252.80;;;;;;5122092;27;20107;-75
2021/10/25 07:02:44;;;;;;;22.17;11.50;;;154.00;2252.80;;;;;;5129344;27;19903;-74
2021/10/25 07:05:09;;;;;;;;;;;154.10;2252.80;;;;;;5114754;27;20032;-74
2021/10/25 07:07:36;;;;;;;18.27;11.27;;;154.10;2252.80;;;;;;5113520;27;19915;-74
2021/10/25 07:10:04;;;;;;;22.77;10.23;;;154.30;2252.80;;;;;;5118178;27;20028;-74
2021/10/25 07:12:30;;;;;;;20.80;10.70;;;154.50;2252.80;;;;;;5109686;27;20492;-75
2021/10/25 07:14:56;;;;;;;;;;;179.20;2252.80;;;;;;5133475;27;20031;-74
2021/10/25 08:06:15;;;;;;;10.48;7.45;;;281.90;2278.40;;;;;;5128184;27;20025;-74
2021/10/25 08:11:14;;;;;;;14.38;6.35;;;282.20;2278.40;;;;;;5143626;27;20085;-74
2021/10/25 08:13:44;;;;;;;11.88;7.53;;;282.20;2278.40;;;;;;5131675;27;20031;-72
2021/10/25 08:21:11;;;;;;;20.85;6.40;;;282.50;2278.40;;;;;;5122738;27;20039;-74
2021/10/25 08:23:37;;;;;;;17.27;7.78;;;307.30;2304.00;;;;;;5110071;27;20031;-74
2021/10/25 08:26:03;;;;;;;13.63;7.05;;;307.40;2304.00;;;;;;5130463;27;20486;-74
2021/10/25 08:28:28;;;;;;;11.52;5.82;;;307.50;2304.00;;;;;;5130626;28;20012;-72
2021/10/25 08:30:54;;;;;;;;;;;307.40;2304.00;;;;;;5133652;28;20027;-72
2021/10/25 08:36:08;;;;;;;14.50;6.60;;;307.50;2304.00;;;;;;5131505;28;20019;-77
2021/10/25 08:41:19;;;;;;;9.68;5.97;;;307.70;2304.00;;;;;;5132078;27;20018;-76
2021/10/25 08:43:47;;;;;;;12.15;7.55;;;307.80;2304.00;;;;;;5133219;27;20035;-78
2021/10/25 08:46:17;;;;;;;16.13;7.07;;;307.90;2304.00;;;;;;5108913;28;20019;-74
2021/10/25 08:48:44;;;;;;;13.18;6.70;;;307.90;2304.00;;;;;;5135651;27;20027;-80
2021/10/25 08:51:11;;;;;;;15.48;6.80;;;308.00;2304.00;;;;;;5135116;27;20019;-78
2021/10/25 08:53:36;;;;;;;13.27;7.07;;;308.10;2304.00;;;;;;5131535;27;20019;-74
2021/10/25 08:56:03;;;;;;;10.52;5.68;;;332.80;2329.60;;;;;;5116481;27;20031;-73
2021/10/25 08:58:34;;;;;;;9.30;5.45;;;332.90;2329.60;;;;;;5129098;27;20038;-74
2021/10/25 09:01:00;;;;;;;10.27;5.57;;;333.00;2329.60;;;;;;5135816;27;20111;-73
2021/10/25 09:03:26;;;;;;;10.77;6.22;;;333.10;2329.60;;;;;;5117489;27;20027;-73
2021/10/25 09:06:02;;;;;;;12.35;6.60;;;333.20;2329.60;;;;;;5130354;27;20503;-76
2021/10/25 09:08:29;;;;;;;14.52;6.32;;;333.30;2329.60;;;;;;5113330;27;20022;-77
2021/10/25 09:10:56;;;;;;;10.35;5.72;;;333.40;2329.60;;;;;;5132309;27;20063;-75
2021/10/25 09:13:26;;;;;;;9.73;5.40;;;333.40;2329.60;;;;;;5114181;27;20068;-75
2021/10/25 09:16:03;;;;;;;11.85;5.85;;;333.40;2329.60;;;;;;5116686;27;20077;-76
2021/10/25 09:18:31;;;;;;;10.13;5.25;;;333.60;2329.60;;;;;;5133557;27;20433;-75
2021/10/25 09:21:02;;;;;;;7.95;5.00;;;333.70;2329.60;;;;;;5116714;27;20015;-76
2021/10/25 09:23:40;;;;;;;9.15;5.43;;;358.40;2329.60;;;;;;5115919;27;20032;-75
2021/10/25 09:26:11;;;;;;;11.02;5.72;;;358.50;2329.60;;;;;;5129030;27;20027;-76
2021/10/25 09:29:00;;;;;;;14.32;5.55;;;358.50;2329.60;;;;;;5133990;27;20465;-74
2021/10/25 09:31:33;;;;;;;8.93;5.32;;;358.70;2329.60;;;;;;5117165;27;20022;-75
2021/10/25 09:34:05;;;;;;;9.68;5.18;;;358.80;2329.60;;;;;;5114552;28;20016;-74
2021/10/25 09:36:38;;;;;;;15.10;5.40;;;358.90;2329.60;;;;;;5114602;28;20019;-74
2021/10/25 09:39:12;;;;;;;7.75;4.63;;;358.90;2329.60;;;;;;5101807;27;20659;-76
2021/10/25 09:49:53;;;;;;;8.07;5.25;;;359.30;2304.00;;;;;;5133079;27;20639;-77
2021/10/25 09:52:30;;;;;;;8.98;4.82;;;359.30;2278.40;;;;;;5133905;27;20109;-74
2021/10/25 09:55:05;;;;;;;12.32;5.28;;;384.00;2227.20;;;;;;5132568;27;20027;-74
2021/10/25 09:57:39;;;;;;;9.90;4.90;;;384.00;2227.20;;;;;;5134744;27;20023;-73
2021/10/25 10:00:07;;;;;;;9.02;5.20;;;384.10;2201.60;;;;;;5123986;27;20099;-75
2021/10/25 10:02:34;;;;;;;6.82;4.53;;;384.10;2176.00;;;;;;5109558;27;20072;-76
2021/10/25 10:05:03;;;;;;;10.63;5.43;;;384.20;2201.60;;;;;;5098831;27;20038;-75
2021/10/25 10:07:30;;;;;;;6.43;3.85;;;384.60;2176.00;;;;;;5134492;27;20016;-75
2021/10/25 10:09:56;;;;;;;8.18;4.95;;;384.70;2150.40;;;;;;5111379;27;20031;-74
2021/10/25 10:12:25;;;;;;;8.90;4.57;;;384.60;2124.80;;;;;;5130237;27;20080;-75
2021/10/25 10:14:56;;;;;;;8.02;4.70;;;384.70;2124.80;;;;;;5132754;27;20050;-74
2021/10/25 10:17:29;;;;;;;11.88;5.35;;;384.90;2073.60;;;;;;5115284;27;20042;-75
2021/10/25 10:19:59;;;;;;;13.45;5.55;;;384.90;2099.20;;;;;;5132062;27;20519;-76
2021/10/25 10:22:26;;;;;;;12.20;4.90;;;409.60;2099.20;;;;;;5134968;27;20085;-75
2021/10/25 10:24:52;;;;;;;11.00;4.65;;;409.70;2073.60;;;;;;5127278;27;20058;-77
2021/10/25 10:27:20;;;;;;;12.48;4.78;;;409.80;1996.80;;;;;;5114177;28;20024;-74
2021/10/25 10:29:51;;;;;;;12.85;5.05;;;409.90;2048.00;;;;;;5114540;28;20512;-76
2021/10/25 10:32:18;;;;;;;6.32;4.03;;;409.80;1996.80;;;;;;5104188;27;20388;-75
2021/10/25 10:34:46;;;;;;;15.45;5.65;;;410.00;1971.20;;;;;;5133899;27;20519;-75
2021/10/25 10:37:22;;;;;;;14.20;6.05;;;410.00;1945.60;;;;;;5116254;27;20030;-74
2021/10/25 10:40:02;;;;;;;14.82;6.60;;;410.00;1971.20;;;;;;5131760;27;20026;-76
2021/10/25 10:42:30;;;;;;;7.47;4.05;;;409.90;1945.60;;;;;;5131834;27;20475;-75
2021/10/25 10:45:03;;;;;;;15.88;5.25;;;410.20;1894.40;;;;;;5115444;27;20039;-75
2021/10/25 10:47:45;;;;;;;7.70;4.35;;;410.20;1894.40;;;;;;5104555;27;20020;-75
2021/10/25 10:50:20;;;;;;;8.05;4.65;;;410.30;1868.80;;;;;;5132221;27;20106;-74
2021/10/25 10:52:56;;;;;;;10.27;4.22;;;410.20;1868.80;;;;;;5105025;27;20156;-78
2021/10/25 10:55:26;;;;;;;;;;;410.30;1868.80;;;;;;5112833;27;20023;-75
2021/10/25 11:00:44;;;;;;;6.38;3.85;;;435.30;1817.60;;;;;;5127462;27;20153;-78
2021/10/25 11:03:25;;;;;;;9.77;3.75;;;435.20;1817.60;;;;;;5124638;27;20027;-74
2021/10/25 11:05:59;;;;;;;16.27;5.57;;;435.30;1792.00;;;;;;5114951;27;20087;-75
2021/10/25 11:08:33;;;;;;;13.55;6.43;;;435.40;1792.00;;;;;;5100646;28;20104;-75
2021/10/25 11:11:21;;;;;;;7.32;3.95;;;435.30;1792.00;;;;;;5123163;27;20488;-75
2021/10/25 11:14:06;;;;;;;16.08;5.65;;;435.30;1766.40;;;;;;5118109;27;20028;-75
2021/10/25 11:16:41;;;;;;;6.00;3.90;;;435.50;1766.40;;;;;;5114079;27;20015;-77
2021/10/25 11:19:08;;;;;;;7.32;3.95;;;435.60;1740.80;;;;;;5101544;27;20031;-75
2021/10/25 11:21:45;;;;;;;7.68;4.10;;;435.50;1740.80;;;;;;5126738;27;20020;-75
2021/10/25 11:24:15;;;;;;;;;;;435.80;1766.40;;;;;;5101445;27;20039;-75
2021/10/25 11:26:46;;;;;;;10.10;3.75;;;435.80;1689.60;;;;;;5125155;27;19911;-78
2021/10/25 11:29:13;;;;;;;5.93;3.33;;;435.90;1664.00;;;;;;5114561;27;20072;-77
2021/10/25 11:31:48;;;;;;;9.93;4.22;;;435.60;1664.00;;;;;;5114863;27;20023;-79
2021/10/25 11:34:20;;;;;;;11.82;3.60;;;435.80;1689.60;;;;;;5115348;27;20084;-82
2021/10/25 11:37:07;;;;;;;8.30;4.55;;;436.10;1715.20;;;;;;5115147;27;20019;-77
2021/10/25 11:39:39;;;;;;;8.10;4.47;;;436.10;1689.60;;;;;;5109977;27;20023;-74
2021/10/25 11:42:10;;;;;;;9.93;3.92;;;435.90;1638.40;;;;;;5127009;27;20019;-74
2021/10/25 11:44:38;;;;;;;8.45;3.92;;;436.00;1664.00;;;;;;5120549;27;20046;-74
2021/10/25 11:47:04;;;;;;;6.05;3.13;;;435.90;1638.40;;;;;;5112136;27;20028;-76
2021/10/25 11:49:35;;;;;;;7.07;3.67;;;436.00;1638.40;;;;;;5122320;27;20081;-74
2021/10/25 11:52:01;;;;;;;10.35;4.40;;;436.00;1638.40;;;;;;5147173;27;20022;-74
2021/10/25 11:54:27;;;;;;;9.48;3.75;;;436.00;1638.40;;;;;;5135470;27;20042;-74
2021/10/25 11:56:55;;;;;;;10.63;4.60;;;436.10;1612.80;;;;;;5134537;27;20421;-74
2021/10/25 11:59:22;;;;;;;7.90;3.72;;;435.90;1587.20;;;;;;5150136;27;20030;-77
2021/10/25 12:01:49;;;;;;;14.20;3.80;;;435.50;1612.80;;;;;;5098927;28;20028;-76
2021/10/25 12:04:20;;;;;;;9.98;3.30;;;436.10;1664.00;;;;;;5103866;27;20058;-77
2021/10/25 12:07:02;;;;;;;6.05;3.40;;;435.90;1612.80;;;;;;5111383;27;20025;-77
2021/10/25 12:09:33;;;;;;;8.30;3.38;;;435.80;1587.20;;;;;;5112618;28;20016;-75
2021/10/25 12:12:08;;;;;;;6.72;3.53;;;436.10;1612.80;;;;;;5105040;28;20160;-78
2021/10/25 12:14:38;;;;;;;7.13;2.90;;;436.10;1587.20;;;;;;5111904;27;20038;-75
2021/10/25 12:17:08;;;;;;;9.52;4.50;;;435.80;1612.80;;;;;;5122909;27;20030;-76
2021/10/25 12:19:36;;;;;;;8.30;4.35;;;436.10;1612.80;;;;;;5100059;28;20073;-76
2021/10/25 12:22:17;;;;;;;6.32;3.40;;;436.10;1638.40;;;;;;5104153;28;20055;-77
2021/10/25 12:24:49;;;;;;;11.68;5.30;;;436.10;1587.20;;;;;;5114102;27;20042;-76
2021/10/25 12:27:21;;;;;;;10.60;5.55;;;435.90;1587.20;;;;;;5114294;28;20025;-77
2021/10/25 12:30:02;;;;;;;10.10;3.63;;;435.70;1561.60;;;;;;5113488;28;20038;-76
2021/10/25 12:32:28;;;;;;;7.70;3.88;;;435.90;1638.40;;;;;;5095487;28;20027;-74
2021/10/25 12:34:57;;;;;;;7.93;4.20;;;435.80;1638.40;;;;;;5127202;28;20054;-77
2021/10/25 12:37:32;;;;;;;8.63;3.97;;;435.60;1612.80;;;;;;5104397;28;20028;-77
2021/10/25 12:39:59;;;;;;;8.43;4.22;;;435.60;1638.40;;;;;;5096069;28;20032;-77
2021/10/25 12:42:27;;;;;;;9.55;3.83;;;435.50;1612.80;;;;;;5131406;28;20027;-74
2021/10/25 12:44:55;;;;;;;8.30;3.95;;;435.40;1612.80;;;;;;5131765;28;20126;-76
2021/10/25 12:47:26;;;;;;;8.27;3.42;;;435.50;1638.40;;;;;;5113599;28;20030;-75
2021/10/25 12:49:57;;;;;;;8.93;4.43;;;435.40;1612.80;;;;;;5113935;28;20068;-76
2021/10/25 12:52:28;;;;;;;9.68;3.90;;;435.40;1612.80;;;;;;5107332;28;20023;-75
2021/10/25 12:55:02;;;;;;;6.70;3.72;;;435.40;1612.80;;;;;;5127616;28;20106;-76
2021/10/25 12:57:34;;;;;;;10.82;4.97;;;435.60;1638.40;;;;;;5120002;28;20019;-75
2021/10/25 13:00:10;;;;;;;8.20;5.25;;;435.50;1664.00;;;;;;5098868;28;20038;-75
2021/10/25 13:02:42;;;;;;;7.63;3.45;;;435.50;1612.80;;;;;;5119447;28;20020;-76
2021/10/25 13:05:15;;;;;;;7.15;3.75;;;435.40;1638.40;;;;;;5127943;28;20073;-76
2021/10/25 13:07:48;;;;;;;8.02;3.75;;;435.30;1638.40;;;;;;5130520;28;20095;-77
2021/10/25 13:10:15;;;;;;;8.38;3.38;;;435.30;1638.40;;;;;;5131800;28;20019;-77
2021/10/25 13:12:43;;;;;;;7.30;4.22;;;435.30;1638.40;;;;;;5126724;28;20998;-79
2021/10/25 13:15:10;;;;;;;6.03;3.45;;;435.30;1638.40;;;;;;5099519;28;20024;-77
2021/10/25 13:17:35;;;;;;;8.82;3.80;;;435.20;1664.00;;;;;;5127277;28;20479;-78
2021/10/25 13:20:02;;;;;;;12.95;4.93;;;410.50;1664.00;;;;;;5109948;28;20026;-76
2021/10/25 13:22:30;;;;;;;7.13;3.67;;;410.50;1664.00;;;;;;5111960;28;20119;-77
2021/10/25 13:24:56;;;;;;;6.30;2.67;;;410.30;1664.00;;;;;;5111151;28;20062;-76
2021/10/25 13:27:22;;;;;;;9.02;3.40;;;410.20;1689.60;;;;;;5128943;28;20016;-77
2021/10/25 13:29:48;;;;;;;7.28;3.78;;;410.30;1664.00;;;;;;5109961;28;20129;-75
2021/10/25 13:32:15;;;;;;;8.15;4.00;;;410.20;1638.40;;;;;;5132353;28;20100;-78
2021/10/25 13:34:41;;;;;;;9.05;3.97;;;410.20;1689.60;;;;;;5116090;27;20540;-75
2021/10/25 13:37:07;;;;;;;7.20;4.20;;;410.20;1664.00;;;;;;5135595;27;20023;-76
2021/10/25 13:39:33;;;;;;;7.22;3.70;;;410.10;1689.60;;;;;;5117228;27;20387;-76
2021/10/25 13:41:59;;;;;;;11.25;4.18;;;410.00;1664.00;;;;;;5135620;27;20038;-77
2021/10/25 13:44:25;;;;;;;9.27;5.05;;;410.00;1664.00;;;;;;5117056;27;20043;-76
2021/10/25 13:46:50;;;;;;;6.38;3.72;;;410.00;1689.60;;;;;;5117250;27;20497;-76
2021/10/25 13:49:16;;;;;;;7.18;4.13;;;409.90;1689.60;;;;;;5113359;27;20047;-75
2021/10/25 13:51:42;;;;;;;7.60;4.20;;;409.90;1715.20;;;;;;5108119;27;20031;-75
2021/10/25 13:54:08;;;;;;;8.07;3.92;;;409.90;1689.60;;;;;;5125103;27;20081;-75
2021/10/25 13:56:37;;;;;;;10.95;4.57;;;409.80;1689.60;;;;;;5111243;27;20019;-76
2021/10/25 13:59:04;;;;;;;8.07;3.67;;;409.80;1715.20;;;;;;5110597;27;20111;-79
2021/10/25 14:01:31;;;;;;;9.00;3.88;;;409.80;1715.20;;;;;;5110328;27;20027;-79
2021/10/25 14:03:57;;;;;;;8.20;3.78;;;409.70;1715.20;;;;;;5110127;27;20036;-76
2021/10/25 14:06:26;;;;;;;8.93;4.22;;;409.70;1740.80;;;;;;5129996;27;20026;-76
2021/10/25 14:08:53;;;;;;;7.97;3.63;;;409.60;1715.20;;;;;;5119395;27;20022;-76
2021/10/25 14:11:21;;;;;;;8.52;4.68;;;384.90;1715.20;;;;;;5135053;27;20055;-75
2021/10/25 14:18:43;;;;;;;12.18;3.92;;;384.70;1715.20;;;;;;5114235;28;20023;-76
2021/10/25 14:21:09;;;;;;;5.85;3.28;;;384.70;1715.20;;;;;;5096458;28;20145;-76
2021/10/25 14:23:35;;;;;;;9.40;4.38;;;384.60;1715.20;;;;;;5096117;28;20034;-77